createdAt,value
2018-09-12T00:00:01.639Z,88.00
2018-09-12T00:00:32.687Z,88.00
2018-09-12T00:01:03.736Z,88.00
2018-09-12T00:01:34.781Z,88.00
2018-09-12T00:02:05.832Z,88.00
2018-09-12T00:02:36.881Z,88.00
2018-09-12T00:03:07.928Z,88.00
2018-09-12T00:03:38.995Z,88.10
2018-09-12T00:04:10.062Z,88.10
2018-09-12T00:04:41.128Z,88.20
2018-09-12T00:05:12.168Z,88.20
2018-09-12T00:05:43.220Z,88.20
2018-09-12T00:06:14.267Z,88.20
2018-09-12T00:06:45.316Z,88.10
2018-09-12T00:07:16.372Z,88.10
2018-09-12T00:07:47.415Z,88.00
2018-09-12T00:08:18.467Z,88.00
2018-09-12T00:08:49.511Z,87.80
2018-09-12T00:09:20.562Z,87.70
2018-09-12T00:09:51.630Z,87.70
2018-09-12T00:10:22.667Z,87.50
2018-09-12T00:10:53.714Z,87.50
2018-09-12T00:11:24.756Z,87.50
2018-09-12T00:11:55.803Z,87.40
2018-09-12T00:12:26.859Z,87.40
2018-09-12T00:12:57.898Z,87.40
2018-09-12T00:13:28.950Z,87.40
2018-09-12T00:13:59.990Z,87.40
2018-09-12T00:14:31.031Z,87.40
2018-09-12T00:15:02.083Z,87.40
2018-09-12T00:15:33.131Z,87.40
2018-09-12T00:16:04.183Z,87.40
2018-09-12T00:16:35.235Z,87.50
2018-09-12T00:17:06.278Z,87.50
2018-09-12T00:17:37.338Z,87.40
2018-09-12T00:18:08.370Z,87.40
2018-09-12T00:18:39.429Z,88.20
2018-09-12T00:19:10.484Z,87.40
2018-09-12T00:19:41.541Z,87.40
2018-09-12T00:20:12.592Z,87.30
2018-09-12T00:20:43.634Z,87.30
2018-09-12T00:21:14.739Z,87.30
2018-09-12T00:21:45.733Z,87.30
2018-09-12T00:22:16.779Z,87.40
2018-09-12T00:22:47.819Z,87.30
2018-09-12T00:23:18.867Z,87.40
2018-09-12T00:23:49.915Z,87.40
2018-09-12T00:24:20.967Z,87.30
2018-09-12T00:24:52.011Z,87.30
2018-09-12T00:25:23.057Z,87.30
2018-09-12T00:25:54.112Z,87.30
2018-09-12T00:26:25.159Z,87.50
2018-09-12T00:26:56.204Z,87.40
2018-09-12T00:27:27.257Z,87.70
2018-09-12T00:27:58.301Z,88.10
2018-09-12T00:28:29.347Z,88.30
2018-09-12T00:29:00.404Z,88.40
2018-09-12T00:29:31.447Z,88.10
2018-09-12T00:30:02.482Z,87.80
2018-09-12T00:30:33.532Z,87.80
2018-09-12T00:31:04.578Z,87.80
2018-09-12T00:31:35.623Z,87.70
2018-09-12T00:32:06.663Z,87.70
2018-09-12T00:32:37.708Z,87.70
2018-09-12T00:33:08.756Z,87.70
2018-09-12T00:33:39.828Z,87.80
2018-09-12T00:34:10.870Z,87.80
2018-09-12T00:34:41.914Z,87.80
2018-09-12T00:35:12.967Z,87.80
2018-09-12T00:35:44.014Z,87.80
2018-09-12T00:36:15.072Z,87.80
2018-09-12T00:36:46.114Z,87.80
2018-09-12T00:37:17.163Z,87.80
2018-09-12T00:37:48.225Z,87.80
2018-09-12T00:38:19.262Z,87.80
2018-09-12T00:38:50.312Z,87.90
2018-09-12T00:39:21.367Z,88.00
2018-09-12T00:39:52.419Z,88.00
2018-09-12T00:40:23.463Z,88.10
2018-09-12T00:40:54.512Z,88.10
2018-09-12T00:41:25.558Z,87.70
2018-09-12T00:41:56.611Z,88.10
2018-09-12T00:42:27.664Z,88.10
2018-09-12T00:42:58.707Z,88.00
2018-09-12T00:43:29.760Z,87.80
2018-09-12T00:44:00.804Z,87.80
2018-09-12T00:44:31.854Z,87.70
2018-09-12T00:45:02.911Z,87.60
2018-09-12T00:45:33.955Z,87.50
2018-09-12T00:46:05.003Z,87.40
2018-09-12T00:46:36.050Z,87.40
2018-09-12T00:47:07.100Z,87.40
2018-09-12T00:47:38.146Z,87.30
2018-09-12T00:48:09.214Z,87.20
2018-09-12T00:48:40.248Z,87.20
2018-09-12T00:49:11.299Z,87.20
2018-09-12T00:49:42.348Z,87.10
2018-09-12T00:50:13.412Z,87.20
2018-09-12T00:50:44.452Z,87.20
2018-09-12T00:51:15.495Z,87.20
2018-09-12T00:51:46.548Z,87.10
2018-09-12T00:52:17.591Z,87.10
2018-09-12T00:52:48.640Z,87.20
2018-09-12T00:53:19.685Z,87.20
2018-09-12T00:53:50.729Z,87.20
2018-09-12T00:54:21.776Z,87.20
2018-09-12T00:54:52.827Z,87.20
2018-09-12T00:55:23.875Z,87.20
2018-09-12T00:55:54.919Z,87.20
2018-09-12T00:56:25.971Z,87.20
2018-09-12T00:56:57.016Z,87.10
2018-09-12T00:57:28.063Z,87.10
2018-09-12T00:57:59.115Z,87.20
2018-09-12T00:58:30.207Z,87.20
2018-09-12T00:59:01.274Z,87.20
2018-09-12T00:59:32.325Z,87.20
2018-09-12T01:00:03.379Z,87.30
2018-09-12T01:00:34.424Z,87.20
2018-09-12T01:01:05.468Z,87.10
2018-09-12T01:01:36.518Z,87.20
2018-09-12T01:02:07.568Z,87.20
2018-09-12T01:02:38.615Z,87.20
2018-09-12T01:03:09.799Z,87.30
2018-09-12T01:03:40.847Z,87.40
2018-09-12T01:04:11.891Z,87.20
2018-09-12T01:04:42.968Z,88.10
2018-09-12T01:05:13.991Z,88.10
2018-09-12T01:05:45.047Z,87.80
2018-09-12T01:06:16.090Z,87.80
2018-09-12T01:06:47.143Z,87.60
2018-09-12T01:07:18.183Z,87.60
2018-09-12T01:07:49.231Z,87.70
2018-09-12T01:08:20.277Z,87.70
2018-09-12T01:08:51.325Z,87.50
2018-09-12T01:09:22.372Z,87.90
2018-09-12T01:09:53.416Z,87.60
2018-09-12T01:10:24.470Z,87.60
2018-09-12T01:10:55.515Z,87.50
2018-09-12T01:11:26.559Z,87.60
2018-09-12T01:11:57.614Z,88.40
2018-09-12T01:12:28.659Z,87.70
2018-09-12T01:12:59.707Z,87.70
2018-09-12T01:13:30.755Z,87.60
2018-09-12T01:14:01.807Z,88.40
2018-09-12T01:14:32.855Z,87.60
2018-09-12T01:15:03.923Z,87.70
2018-09-12T01:15:34.970Z,87.70
2018-09-12T01:16:06.023Z,87.80
2018-09-12T01:16:37.067Z,88.40
2018-09-12T01:17:08.116Z,87.90
2018-09-12T01:17:39.159Z,87.90
2018-09-12T01:18:10.211Z,87.80
2018-09-12T01:18:41.256Z,87.70
2018-09-12T01:19:12.306Z,88.40
2018-09-12T01:19:43.347Z,87.50
2018-09-12T01:20:14.411Z,87.50
2018-09-12T01:20:45.465Z,87.40
2018-09-12T01:21:16.502Z,87.30
2018-09-12T01:21:47.559Z,87.30
2018-09-12T01:22:18.611Z,87.10
2018-09-12T01:22:49.655Z,87.10
2018-09-12T01:23:20.741Z,87.10
2018-09-12T01:23:51.748Z,87.10
2018-09-12T01:24:22.796Z,87.10
2018-09-12T01:24:53.843Z,87.00
2018-09-12T01:25:24.894Z,86.90
2018-09-12T01:25:55.943Z,87.00
2018-09-12T01:26:26.986Z,87.00
2018-09-12T01:26:58.031Z,87.00
2018-09-12T01:27:29.084Z,87.00
2018-09-12T01:28:00.128Z,87.00
2018-09-12T01:28:31.174Z,87.00
2018-09-12T01:29:02.229Z,87.00
2018-09-12T01:29:33.272Z,87.80
2018-09-12T01:30:04.320Z,87.00
2018-09-12T01:30:35.375Z,87.00
2018-09-12T01:31:06.414Z,87.80
2018-09-12T01:31:37.463Z,87.10
2018-09-12T01:32:08.515Z,87.00
2018-09-12T01:32:39.562Z,87.00
2018-09-12T01:33:10.620Z,87.00
2018-09-12T01:33:41.659Z,87.10
2018-09-12T01:34:12.703Z,87.00
2018-09-12T01:34:43.756Z,87.90
2018-09-12T01:35:14.800Z,87.00
2018-09-12T01:35:45.863Z,87.10
2018-09-12T01:36:16.910Z,87.00
2018-09-12T01:36:47.960Z,87.10
2018-09-12T01:37:19.012Z,87.00
2018-09-12T01:37:50.067Z,87.00
2018-09-12T01:38:21.109Z,87.00
2018-09-12T01:38:52.159Z,87.00
2018-09-12T01:39:23.207Z,87.20
2018-09-12T01:39:54.255Z,87.70
2018-09-12T01:40:25.312Z,88.00
2018-09-12T01:40:56.354Z,88.10
2018-09-12T01:41:27.394Z,88.80
2018-09-12T01:41:58.445Z,87.80
2018-09-12T01:42:29.494Z,87.50
2018-09-12T01:43:00.546Z,87.40
2018-09-12T01:43:31.601Z,87.60
2018-09-12T01:44:02.651Z,87.50
2018-09-12T01:44:33.703Z,88.20
2018-09-12T01:45:04.751Z,87.40
2018-09-12T01:45:35.798Z,87.40
2018-09-12T01:46:06.852Z,87.30
2018-09-12T01:46:37.900Z,87.40
2018-09-12T01:47:08.942Z,87.40
2018-09-12T01:47:39.995Z,87.50
2018-09-12T01:48:11.059Z,87.50
2018-09-12T01:48:42.111Z,87.50
2018-09-12T01:49:13.272Z,87.60
2018-09-12T01:49:44.323Z,87.60
2018-09-12T01:50:15.371Z,87.70
2018-09-12T01:50:46.439Z,87.70
2018-09-12T01:51:17.495Z,87.70
2018-09-12T01:51:48.547Z,87.80
2018-09-12T01:52:19.586Z,87.70
2018-09-12T01:52:50.639Z,87.80
2018-09-12T01:53:21.699Z,87.70
2018-09-12T01:53:52.743Z,87.60
2018-09-12T01:54:23.787Z,87.60
2018-09-12T01:54:54.832Z,87.50
2018-09-12T01:55:25.904Z,87.40
2018-09-12T01:55:56.954Z,87.20
2018-09-12T01:56:28.011Z,87.10
2018-09-12T01:56:59.050Z,87.10
2018-09-12T01:57:30.108Z,87.10
2018-09-12T01:58:01.154Z,87.00
2018-09-12T01:58:32.224Z,87.00
2018-09-12T01:59:03.251Z,86.90
2018-09-12T01:59:34.301Z,86.90
2018-09-12T02:00:05.352Z,86.80
2018-09-12T02:00:36.405Z,86.80
2018-09-12T02:01:07.446Z,86.90
2018-09-12T02:01:38.526Z,86.80
2018-09-12T02:02:09.572Z,86.90
2018-09-12T02:02:40.613Z,86.80
2018-09-12T02:03:11.656Z,86.90
2018-09-12T02:03:42.703Z,86.90
2018-09-12T02:04:13.752Z,87.00
2018-09-12T02:04:44.801Z,86.80
2018-09-12T02:05:15.835Z,86.90
2018-09-12T02:05:46.896Z,86.80
2018-09-12T02:06:17.943Z,86.90
2018-09-12T02:06:48.988Z,87.00
2018-09-12T02:07:20.031Z,86.90
2018-09-12T02:07:51.084Z,86.80
2018-09-12T02:08:22.152Z,86.80
2018-09-12T02:08:53.190Z,86.80
2018-09-12T02:09:24.239Z,86.80
2018-09-12T02:09:55.299Z,86.70
2018-09-12T02:10:26.339Z,86.70
2018-09-12T02:10:57.395Z,86.70
2018-09-12T02:11:28.434Z,86.70
2018-09-12T02:11:59.482Z,86.80
2018-09-12T02:12:30.538Z,86.80
2018-09-12T02:13:01.589Z,86.80
2018-09-12T02:13:32.643Z,86.80
2018-09-12T02:14:03.696Z,86.90
2018-09-12T02:14:34.742Z,86.90
2018-09-12T02:15:05.783Z,87.70
2018-09-12T02:15:36.830Z,87.10
2018-09-12T02:16:07.879Z,87.50
2018-09-12T02:16:38.931Z,87.70
2018-09-12T02:17:10.024Z,87.70
2018-09-12T02:17:41.087Z,87.60
2018-09-12T02:18:12.130Z,87.40
2018-09-12T02:18:43.181Z,87.40
2018-09-12T02:19:14.222Z,87.40
2018-09-12T02:19:45.272Z,87.40
2018-09-12T02:20:16.319Z,87.40
2018-09-12T02:20:47.383Z,87.20
2018-09-12T02:21:18.428Z,87.20
2018-09-12T02:21:49.462Z,87.30
2018-09-12T02:22:20.507Z,87.40
2018-09-12T02:22:51.551Z,87.40
2018-09-12T02:23:22.598Z,87.40
2018-09-12T02:23:53.639Z,87.40
2018-09-12T02:24:24.687Z,87.20
2018-09-12T02:24:55.733Z,87.20
2018-09-12T02:25:26.804Z,87.10
2018-09-12T02:25:57.843Z,87.20
2018-09-12T02:26:28.896Z,87.30
2018-09-12T02:26:59.934Z,87.40
2018-09-12T02:27:30.984Z,87.40
2018-09-12T02:28:02.023Z,87.50
2018-09-12T02:28:33.059Z,87.50
2018-09-12T02:29:04.111Z,87.40
2018-09-12T02:29:35.159Z,87.30
2018-09-12T02:30:06.198Z,87.20
2018-09-12T02:30:37.257Z,87.20
2018-09-12T02:31:08.318Z,87.20
2018-09-12T02:31:39.358Z,87.10
2018-09-12T02:32:10.407Z,86.90
2018-09-12T02:32:41.450Z,86.80
2018-09-12T02:33:12.504Z,86.80
2018-09-12T02:33:43.551Z,86.80
2018-09-12T02:34:14.597Z,86.70
2018-09-12T02:34:45.634Z,86.70
2018-09-12T02:35:16.703Z,86.70
2018-09-12T02:35:47.749Z,86.70
2018-09-12T02:36:18.800Z,86.60
2018-09-12T02:36:49.846Z,86.50
2018-09-12T02:37:20.894Z,86.60
2018-09-12T02:37:51.937Z,86.60
2018-09-12T02:38:22.979Z,86.60
2018-09-12T02:38:54.024Z,86.70
2018-09-12T02:39:25.066Z,86.60
2018-09-12T02:39:56.115Z,86.60
2018-09-12T02:40:27.154Z,86.60
2018-09-12T02:40:58.207Z,86.70
2018-09-12T02:41:29.257Z,86.70
2018-09-12T02:42:00.304Z,86.70
2018-09-12T02:42:31.356Z,86.60
2018-09-12T02:43:02.400Z,86.60
2018-09-12T02:43:33.438Z,86.60
2018-09-12T02:44:04.487Z,86.60
2018-09-12T02:44:35.532Z,86.60
2018-09-12T02:45:06.745Z,86.50
2018-09-12T02:45:37.771Z,86.50
2018-09-12T02:46:08.823Z,86.50
2018-09-12T02:46:39.871Z,86.50
2018-09-12T02:47:10.911Z,86.50
2018-09-12T02:47:41.955Z,86.50
2018-09-12T02:48:12.995Z,86.50
2018-09-12T02:48:44.044Z,86.50
2018-09-12T02:49:15.088Z,86.60
2018-09-12T02:49:46.127Z,86.50
2018-09-12T02:50:17.181Z,86.50
2018-09-12T02:50:48.228Z,86.60
2018-09-12T02:51:19.275Z,86.70
2018-09-12T02:51:50.319Z,87.10
2018-09-12T02:52:21.367Z,87.50
2018-09-12T02:52:52.427Z,87.70
2018-09-12T02:53:23.471Z,87.50
2018-09-12T02:53:54.515Z,87.10
2018-09-12T02:54:25.560Z,87.00
2018-09-12T02:54:56.614Z,86.80
2018-09-12T02:55:27.663Z,86.70
2018-09-12T02:55:58.701Z,86.70
2018-09-12T02:56:29.746Z,86.70
2018-09-12T02:57:00.791Z,86.70
2018-09-12T02:57:31.834Z,86.80
2018-09-12T02:58:02.879Z,86.80
2018-09-12T02:58:33.923Z,86.50
2018-09-12T02:59:04.971Z,86.50
2018-09-12T02:59:36.012Z,86.70
2018-09-12T03:00:07.060Z,86.70
2018-09-12T03:00:38.105Z,86.70
2018-09-12T03:01:09.175Z,86.70
2018-09-12T03:01:40.210Z,86.80
2018-09-12T03:02:11.250Z,87.70
2018-09-12T03:02:42.296Z,87.00
2018-09-12T03:03:13.344Z,87.10
2018-09-12T03:03:44.384Z,87.10
2018-09-12T03:04:15.431Z,87.10
2018-09-12T03:04:46.485Z,87.10
2018-09-12T03:05:17.519Z,87.20
2018-09-12T03:05:48.562Z,87.20
2018-09-12T03:06:19.618Z,87.20
2018-09-12T03:06:50.671Z,87.00
2018-09-12T03:07:21.727Z,86.80
2018-09-12T03:07:52.775Z,86.70
2018-09-12T03:08:23.820Z,86.70
2018-09-12T03:08:54.872Z,86.50
2018-09-12T03:09:25.927Z,86.40
2018-09-12T03:09:56.963Z,86.40
2018-09-12T03:10:28.008Z,86.40
2018-09-12T03:10:59.051Z,86.50
2018-09-12T03:11:30.107Z,86.50
2018-09-12T03:12:01.156Z,87.20
2018-09-12T03:12:32.195Z,86.40
2018-09-12T03:13:03.238Z,86.60
2018-09-12T03:13:34.286Z,86.40
2018-09-12T03:14:05.334Z,86.40
2018-09-12T03:14:36.384Z,86.40
2018-09-12T03:15:07.431Z,86.40
2018-09-12T03:15:38.478Z,86.40
2018-09-12T03:16:09.564Z,86.40
2018-09-12T03:16:40.606Z,86.50
2018-09-12T03:17:11.655Z,86.40
2018-09-12T03:17:43.018Z,86.40
2018-09-12T03:18:14.072Z,86.60
2018-09-12T03:18:45.124Z,86.40
2018-09-12T03:19:16.171Z,86.30
2018-09-12T03:19:47.215Z,86.30
2018-09-12T03:20:18.271Z,86.30
2018-09-12T03:20:49.422Z,86.20
2018-09-12T03:21:20.376Z,86.20
2018-09-12T03:21:51.423Z,86.20
2018-09-12T03:22:22.472Z,86.20
2018-09-12T03:22:53.515Z,86.20
2018-09-12T03:23:24.911Z,86.20
2018-09-12T03:23:55.965Z,86.20
2018-09-12T03:24:27.007Z,86.20
2018-09-12T03:24:58.063Z,86.10
2018-09-12T03:25:29.103Z,86.20
2018-09-12T03:26:00.147Z,86.30
2018-09-12T03:26:31.199Z,86.40
2018-09-12T03:27:02.246Z,85.90
2018-09-12T03:27:33.305Z,86.70
2018-09-12T03:28:04.347Z,87.00
2018-09-12T03:28:35.386Z,87.00
2018-09-12T03:29:06.435Z,87.00
2018-09-12T03:29:37.487Z,87.00
2018-09-12T03:30:08.533Z,86.70
2018-09-12T03:30:39.583Z,86.70
2018-09-12T03:31:10.631Z,86.50
2018-09-12T03:31:41.705Z,86.40
2018-09-12T03:32:12.745Z,86.50
2018-09-12T03:32:43.808Z,86.50
2018-09-12T03:33:14.844Z,86.50
2018-09-12T03:33:45.886Z,86.40
2018-09-12T03:34:16.934Z,86.40
2018-09-12T03:34:47.999Z,86.20
2018-09-12T03:35:19.051Z,86.10
2018-09-12T03:35:50.105Z,86.30
2018-09-12T03:36:21.147Z,87.20
2018-09-12T03:36:52.209Z,86.20
2018-09-12T03:37:23.255Z,86.30
2018-09-12T03:37:54.300Z,86.40
2018-09-12T03:38:25.343Z,86.40
2018-09-12T03:38:56.395Z,86.60
2018-09-12T03:39:27.447Z,86.60
2018-09-12T03:39:58.491Z,86.70
2018-09-12T03:40:29.539Z,86.80
2018-09-12T03:41:00.592Z,86.80
2018-09-12T03:41:31.642Z,86.90
2018-09-12T03:42:02.698Z,86.80
2018-09-12T03:42:33.736Z,86.70
2018-09-12T03:43:04.783Z,86.50
2018-09-12T03:43:35.832Z,86.50
2018-09-12T03:44:06.883Z,86.40
2018-09-12T03:44:37.931Z,86.20
2018-09-12T03:45:08.979Z,86.20
2018-09-12T03:45:40.031Z,86.10
2018-09-12T03:46:11.078Z,86.10
2018-09-12T03:46:42.135Z,86.20
2018-09-12T03:47:13.183Z,86.10
2018-09-12T03:47:44.227Z,86.10
2018-09-12T03:48:15.275Z,86.00
2018-09-12T03:48:46.322Z,86.00
2018-09-12T03:49:17.374Z,86.00
2018-09-12T03:49:48.416Z,86.00
2018-09-12T03:50:19.468Z,86.10
2018-09-12T03:50:50.520Z,86.10
2018-09-12T03:51:21.576Z,86.20
2018-09-12T03:51:52.624Z,86.10
2018-09-12T03:52:23.672Z,86.10
2018-09-12T03:52:54.711Z,86.00
2018-09-12T03:53:25.758Z,86.10
2018-09-12T03:53:57.135Z,86.10
2018-09-12T03:54:28.183Z,86.00
2018-09-12T03:54:59.230Z,86.00
2018-09-12T03:55:30.277Z,86.10
2018-09-12T03:56:01.336Z,86.90
2018-09-12T03:56:32.384Z,86.00
2018-09-12T03:57:03.435Z,86.00
2018-09-12T03:57:34.495Z,86.00
2018-09-12T03:58:05.540Z,86.20
2018-09-12T03:58:36.607Z,86.00
2018-09-12T03:59:07.647Z,86.00
2018-09-12T03:59:38.698Z,85.90
2018-09-12T04:00:09.824Z,86.10
2018-09-12T04:00:40.876Z,85.90
2018-09-12T04:01:12.000Z,86.00
2018-09-12T04:01:43.072Z,86.00
2018-09-12T04:02:14.119Z,86.10
2018-09-12T04:02:45.191Z,86.10
2018-09-12T04:03:16.222Z,85.50
2018-09-12T04:03:47.267Z,86.30
2018-09-12T04:04:18.310Z,86.70
2018-09-12T04:04:49.359Z,86.90
2018-09-12T04:05:20.412Z,86.80
2018-09-12T04:05:51.465Z,86.90
2018-09-12T04:06:22.699Z,86.80
2018-09-12T04:06:53.740Z,86.60
2018-09-12T04:07:24.787Z,86.40
2018-09-12T04:07:55.834Z,86.40
2018-09-12T04:08:26.884Z,86.40
2018-09-12T04:08:57.941Z,86.20
2018-09-12T04:09:28.991Z,86.20
2018-09-12T04:10:00.049Z,85.90
2018-09-12T04:10:31.088Z,85.70
2018-09-12T04:11:02.136Z,85.80
2018-09-12T04:11:33.187Z,85.70
2018-09-12T04:12:04.266Z,85.70
2018-09-12T04:12:35.316Z,85.70
2018-09-12T04:13:06.362Z,85.60
2018-09-12T04:13:37.408Z,85.70
2018-09-12T04:14:08.459Z,85.80
2018-09-12T04:14:39.514Z,85.90
2018-09-12T04:15:10.568Z,86.00
2018-09-12T04:15:41.623Z,86.20
2018-09-12T04:16:12.675Z,86.20
2018-09-12T04:16:43.757Z,86.20
2018-09-12T04:17:14.782Z,86.20
2018-09-12T04:17:45.829Z,86.20
2018-09-12T04:18:16.870Z,86.20
2018-09-12T04:18:47.919Z,86.10
2018-09-12T04:19:18.955Z,86.10
2018-09-12T04:19:50.007Z,85.50
2018-09-12T04:20:21.050Z,86.00
2018-09-12T04:20:52.668Z,86.10
2018-09-12T04:21:23.767Z,86.00
2018-09-12T04:21:54.826Z,85.80
2018-09-12T04:22:25.868Z,85.80
2018-09-12T04:22:56.916Z,85.80
2018-09-12T04:23:27.961Z,85.80
2018-09-12T04:23:59.003Z,85.80
2018-09-12T04:24:30.052Z,85.70
2018-09-12T04:25:01.105Z,85.70
2018-09-12T04:25:32.363Z,85.80
2018-09-12T04:26:03.973Z,85.70
2018-09-12T04:26:34.999Z,85.60
2018-09-12T04:27:06.063Z,85.60
2018-09-12T04:27:37.102Z,85.60
2018-09-12T04:28:08.147Z,85.70
2018-09-12T04:28:39.191Z,85.60
2018-09-12T04:29:10.256Z,85.60
2018-09-12T04:29:41.303Z,85.70
2018-09-12T04:30:12.347Z,85.70
2018-09-12T04:30:43.391Z,85.60
2018-09-12T04:31:14.435Z,85.60
2018-09-12T04:31:45.492Z,85.50
2018-09-12T04:32:16.540Z,85.70
2018-09-12T04:32:47.583Z,85.60
2018-09-12T04:33:18.648Z,85.70
2018-09-12T04:33:49.701Z,85.70
2018-09-12T04:34:20.743Z,85.70
2018-09-12T04:34:51.786Z,85.70
2018-09-12T04:35:22.827Z,85.70
2018-09-12T04:35:53.875Z,85.70
2018-09-12T04:36:24.915Z,85.70
2018-09-12T04:36:55.971Z,85.70
2018-09-12T04:37:27.016Z,85.70
2018-09-12T04:37:58.062Z,85.70
2018-09-12T04:38:29.132Z,85.70
2018-09-12T04:39:00.172Z,86.00
2018-09-12T04:39:31.236Z,86.20
2018-09-12T04:40:02.275Z,86.40
2018-09-12T04:40:33.319Z,86.30
2018-09-12T04:41:04.362Z,86.20
2018-09-12T04:41:35.412Z,86.00
2018-09-12T04:42:06.467Z,86.00
2018-09-12T04:42:37.556Z,85.90
2018-09-12T04:43:08.559Z,85.70
2018-09-12T04:43:39.603Z,85.60
2018-09-12T04:44:10.657Z,85.40
2018-09-12T04:44:41.695Z,85.30
2018-09-12T04:45:12.737Z,85.30
2018-09-12T04:45:43.783Z,85.40
2018-09-12T04:46:14.831Z,85.30
2018-09-12T04:46:45.870Z,85.10
2018-09-12T04:47:16.932Z,85.20
2018-09-12T04:47:47.975Z,85.30
2018-09-12T04:48:19.025Z,85.20
2018-09-12T04:48:50.066Z,86.00
2018-09-12T04:49:21.120Z,85.30
2018-09-12T04:49:52.165Z,85.20
2018-09-12T04:50:23.209Z,85.40
2018-09-12T04:50:54.255Z,85.40
2018-09-12T04:51:25.299Z,85.50
2018-09-12T04:51:56.348Z,85.50
2018-09-12T04:52:27.411Z,85.60
2018-09-12T04:52:58.447Z,85.70
2018-09-12T04:53:29.486Z,85.70
2018-09-12T04:54:00.534Z,85.70
2018-09-12T04:54:31.579Z,85.80
2018-09-12T04:55:02.630Z,85.80
2018-09-12T04:55:33.674Z,86.50
2018-09-12T04:56:04.721Z,85.70
2018-09-12T04:56:35.759Z,85.60
2018-09-12T04:57:06.819Z,85.50
2018-09-12T04:57:37.856Z,85.50
2018-09-12T04:58:08.896Z,85.50
2018-09-12T04:58:39.951Z,85.50
2018-09-12T04:59:10.988Z,85.50
2018-09-12T04:59:42.112Z,85.50
2018-09-12T05:00:13.087Z,85.40
2018-09-12T05:00:44.126Z,85.40
2018-09-12T05:01:15.175Z,86.20
2018-09-12T05:01:46.224Z,85.40
2018-09-12T05:02:17.275Z,85.40
2018-09-12T05:02:48.322Z,85.40
2018-09-12T05:03:19.379Z,85.40
2018-09-12T05:03:50.424Z,85.40
2018-09-12T05:04:21.471Z,85.50
2018-09-12T05:04:52.515Z,85.40
2018-09-12T05:05:23.555Z,85.40
2018-09-12T05:05:54.599Z,85.40
2018-09-12T05:06:25.899Z,85.50
2018-09-12T05:06:56.997Z,85.50
2018-09-12T05:07:28.044Z,85.40
2018-09-12T05:07:59.089Z,85.40
2018-09-12T05:08:30.140Z,85.40
2018-09-12T05:09:01.188Z,85.50
2018-09-12T05:09:32.236Z,85.50
2018-09-12T05:10:03.288Z,85.50
2018-09-12T05:10:34.326Z,85.50
2018-09-12T05:11:05.380Z,85.50
2018-09-12T05:11:36.419Z,85.50
2018-09-12T05:12:07.473Z,85.50
2018-09-12T05:12:38.519Z,85.50
2018-09-12T05:13:09.594Z,85.50
2018-09-12T05:13:40.623Z,85.50
2018-09-12T05:14:11.662Z,85.50
2018-09-12T05:14:42.711Z,85.50
2018-09-12T05:15:13.763Z,85.50
2018-09-12T05:15:44.802Z,85.70
2018-09-12T05:16:15.857Z,86.00
2018-09-12T05:16:46.977Z,86.10
2018-09-12T05:17:17.949Z,86.00
2018-09-12T05:17:48.994Z,85.70
2018-09-12T05:18:20.039Z,85.60
2018-09-12T05:18:51.099Z,85.60
2018-09-12T05:19:22.147Z,85.50
2018-09-12T05:19:53.204Z,85.50
2018-09-12T05:20:24.240Z,85.50
2018-09-12T05:20:55.279Z,85.20
2018-09-12T05:21:26.332Z,85.10
2018-09-12T05:21:57.367Z,85.00
2018-09-12T05:22:28.409Z,85.10
2018-09-12T05:22:59.454Z,85.10
2018-09-12T05:23:30.502Z,85.10
2018-09-12T05:24:01.543Z,85.00
2018-09-12T05:24:32.596Z,84.90
2018-09-12T05:25:03.635Z,85.00
2018-09-12T05:25:34.681Z,85.00
2018-09-12T05:26:05.731Z,85.10
2018-09-12T05:26:36.772Z,85.20
2018-09-12T05:27:07.823Z,85.20
2018-09-12T05:27:38.879Z,85.30
2018-09-12T05:28:09.992Z,85.30
2018-09-12T05:28:41.092Z,85.30
2018-09-12T05:29:12.067Z,85.40
2018-09-12T05:29:43.111Z,85.40
2018-09-12T05:30:14.158Z,85.50
2018-09-12T05:30:45.199Z,85.50
2018-09-12T05:31:16.248Z,85.50
2018-09-12T05:31:47.326Z,85.40
2018-09-12T05:32:18.342Z,85.30
2018-09-12T05:32:49.392Z,85.30
2018-09-12T05:33:20.439Z,85.30
2018-09-12T05:33:51.483Z,85.20
2018-09-12T05:34:22.536Z,85.20
2018-09-12T05:34:53.584Z,85.20
2018-09-12T05:35:24.639Z,85.20
2018-09-12T05:35:55.679Z,85.20
2018-09-12T05:36:26.756Z,85.10
2018-09-12T05:36:57.772Z,85.10
2018-09-12T05:37:28.828Z,85.20
2018-09-12T05:37:59.862Z,85.20
2018-09-12T05:38:30.912Z,85.20
2018-09-12T05:39:01.959Z,85.10
2018-09-12T05:39:32.998Z,85.10
2018-09-12T05:40:04.043Z,85.20
2018-09-12T05:40:35.087Z,86.00
2018-09-12T05:41:06.136Z,85.20
2018-09-12T05:41:37.188Z,85.20
2018-09-12T05:42:08.238Z,85.20
2018-09-12T05:42:39.287Z,85.20
2018-09-12T05:43:10.344Z,85.20
2018-09-12T05:43:41.387Z,85.30
2018-09-12T05:44:12.427Z,85.30
2018-09-12T05:44:43.472Z,85.40
2018-09-12T05:45:14.515Z,85.40
2018-09-12T05:45:45.559Z,85.40
2018-09-12T05:46:16.599Z,85.40
2018-09-12T05:46:47.640Z,86.00
2018-09-12T05:47:18.679Z,85.30
2018-09-12T05:47:49.751Z,85.20
2018-09-12T05:48:20.798Z,85.20
2018-09-12T05:48:51.839Z,85.30
2018-09-12T05:49:22.891Z,85.30
2018-09-12T05:49:53.931Z,85.40
2018-09-12T05:50:24.979Z,85.30
2018-09-12T05:50:56.029Z,85.40
2018-09-12T05:51:27.083Z,85.50
2018-09-12T05:51:58.123Z,85.80
2018-09-12T05:52:29.179Z,86.00
2018-09-12T05:53:00.224Z,86.10
2018-09-12T05:53:31.275Z,85.90
2018-09-12T05:54:02.325Z,85.80
2018-09-12T05:54:33.369Z,85.50
2018-09-12T05:55:04.411Z,85.40
2018-09-12T05:55:35.462Z,85.30
2018-09-12T05:56:06.539Z,85.30
2018-09-12T05:56:37.564Z,85.10
2018-09-12T05:57:08.610Z,85.40
2018-09-12T05:57:39.659Z,85.00
2018-09-12T05:58:10.711Z,84.90
2018-09-12T05:58:41.750Z,85.00
2018-09-12T05:59:12.795Z,85.00
2018-09-12T05:59:43.838Z,84.90
2018-09-12T06:00:14.889Z,84.80
2018-09-12T06:00:45.942Z,84.80
2018-09-12T06:01:16.984Z,84.80
2018-09-12T06:01:48.027Z,84.80
2018-09-12T06:02:19.080Z,85.00
2018-09-12T06:02:50.132Z,85.70
2018-09-12T06:03:21.171Z,85.10
2018-09-12T06:03:52.218Z,85.10
2018-09-12T06:04:23.268Z,85.10
2018-09-12T06:04:54.314Z,85.20
2018-09-12T06:05:25.360Z,85.30
2018-09-12T06:05:56.399Z,85.30
2018-09-12T06:06:27.484Z,85.40
2018-09-12T06:06:58.590Z,85.30
2018-09-12T06:07:29.548Z,85.20
2018-09-12T06:08:00.601Z,85.30
2018-09-12T06:08:31.639Z,85.20
2018-09-12T06:09:02.691Z,85.20
2018-09-12T06:09:33.730Z,85.10
2018-09-12T06:10:04.776Z,85.10
2018-09-12T06:10:35.817Z,85.10
2018-09-12T06:11:06.863Z,85.10
2018-09-12T06:11:38.011Z,85.10
2018-09-12T06:12:09.062Z,85.10
2018-09-12T06:12:40.124Z,85.10
2018-09-12T06:13:11.163Z,85.10
2018-09-12T06:13:42.232Z,85.10
2018-09-12T06:14:13.306Z,85.10
2018-09-12T06:14:44.307Z,85.10
2018-09-12T06:15:15.351Z,85.10
2018-09-12T06:15:46.399Z,85.10
2018-09-12T06:16:17.447Z,86.00
2018-09-12T06:16:48.504Z,85.10
2018-09-12T06:17:19.552Z,85.10
2018-09-12T06:17:50.607Z,85.10
2018-09-12T06:18:21.651Z,85.10
2018-09-12T06:18:52.700Z,85.10
2018-09-12T06:19:23.740Z,85.10
2018-09-12T06:19:54.788Z,85.10
2018-09-12T06:20:25.831Z,85.20
2018-09-12T06:20:56.876Z,85.20
2018-09-12T06:21:27.914Z,86.00
2018-09-12T06:21:58.962Z,85.20
2018-09-12T06:22:30.003Z,85.20
2018-09-12T06:23:01.054Z,85.10
2018-09-12T06:23:32.102Z,85.20
2018-09-12T06:24:03.154Z,85.20
2018-09-12T06:24:34.210Z,85.20
2018-09-12T06:25:05.263Z,85.20
2018-09-12T06:25:36.303Z,85.20
2018-09-12T06:26:07.353Z,85.20
2018-09-12T06:26:38.391Z,85.20
2018-09-12T06:27:09.467Z,85.40
2018-09-12T06:27:40.682Z,85.50
2018-09-12T06:28:11.755Z,85.80
2018-09-12T06:28:42.791Z,85.90
2018-09-12T06:29:13.834Z,85.80
2018-09-12T06:29:44.874Z,85.90
2018-09-12T06:30:15.934Z,85.70
2018-09-12T06:30:47.007Z,85.60
2018-09-12T06:31:18.022Z,85.40
2018-09-12T06:31:49.072Z,85.40
2018-09-12T06:32:20.119Z,86.10
2018-09-12T06:32:51.170Z,85.40
2018-09-12T06:33:22.219Z,85.40
2018-09-12T06:33:53.287Z,85.30
2018-09-12T06:34:24.333Z,85.40
2018-09-12T06:34:55.375Z,85.40
2018-09-12T06:35:26.423Z,85.40
2018-09-12T06:35:57.471Z,85.40
2018-09-12T06:36:28.514Z,85.40
2018-09-12T06:36:59.567Z,85.40
2018-09-12T06:37:30.606Z,85.50
2018-09-12T06:38:01.656Z,85.50
2018-09-12T06:38:32.782Z,85.50
2018-09-12T06:39:03.756Z,85.70
2018-09-12T06:39:34.807Z,85.70